createdAt,value
2024-03-13T00:00:27.556Z,100592.34
2024-03-13T00:03:17.045Z,100592.50
2024-03-13T00:06:09.542Z,100595.03
2024-03-13T00:08:56.761Z,100590.75
2024-03-13T00:18:07.381Z,100600.38
2024-03-13T00:20:42.432Z,100597.75
2024-03-13T00:23:27.374Z,100601.59
2024-03-13T00:29:11.239Z,100594.94
2024-03-13T00:32:14.125Z,100592.41
2024-03-13T00:45:19.926Z,100588.66
2024-03-13T00:47:56.399Z,100588.75
2024-03-13T00:51:06.307Z,100595.56
2024-03-13T00:53:46.699Z,100586.63
2024-03-13T00:56:20.255Z,100587.34
2024-03-13T00:59:22.880Z,100592.84
2024-03-13T01:02:08.653Z,100596.88
2024-03-13T01:05:15.993Z,100596.88
2024-03-13T01:08:03.010Z,100588.38
2024-03-13T01:10:46.399Z,100597.50
2024-03-13T01:13:35.564Z,100592.06
2024-03-13T01:16:34.164Z,100581.91
2024-03-13T01:19:13.166Z,100597.34
2024-03-13T01:22:08.560Z,100594.25
2024-03-13T01:25:22.676Z,100599.06
2024-03-13T01:28:32.556Z,100597.91
2024-03-13T01:31:44.015Z,100598.88
2024-03-13T01:34:29.850Z,100602.28
2024-03-13T01:38:04.454Z,100595.22
2024-03-13T01:40:59.922Z,100596.97
2024-03-13T01:47:41.065Z,100599.22
2024-03-13T01:50:31.722Z,100604.94
2024-03-13T01:56:30.552Z,100610.50
2024-03-13T01:59:27.118Z,100607.59
2024-03-13T02:08:43.159Z,100622.03
2024-03-13T02:11:20.976Z,100619.44
2024-03-13T02:19:49.968Z,100623.19
2024-03-13T02:22:37.995Z,100620.28
2024-03-13T02:25:18.602Z,100614.34
2024-03-13T02:28:32.335Z,100624.88
2024-03-13T02:31:19.350Z,100623.84
2024-03-13T02:33:59.814Z,100622.09
2024-03-13T02:36:46.774Z,100617.25
2024-03-13T02:39:32.869Z,100618.66
2024-03-13T02:42:19.817Z,100611.13
2024-03-13T02:45:02.112Z,100610.44
2024-03-13T02:47:54.217Z,100615.50
2024-03-13T02:53:51.633Z,100615.22
2024-03-13T02:56:51.835Z,100624.69
2024-03-13T03:02:49.474Z,100613.28
2024-03-13T03:08:57.325Z,100611.03
2024-03-13T03:15:18.059Z,100614.41
2024-03-13T03:17:56.812Z,100615.66
2024-03-13T03:24:07.057Z,100617.91
2024-03-13T03:26:55.362Z,100621.91
2024-03-13T03:29:37.182Z,100617.94
2024-03-13T03:32:21.299Z,100616.19
2024-03-13T03:35:10.638Z,100629.25
2024-03-13T03:38:01.620Z,100623.50
2024-03-13T03:41:00.511Z,100620.34
2024-03-13T03:43:41.638Z,100617.72
2024-03-13T03:49:28.488Z,100624.84
2024-03-13T03:52:41.980Z,100604.28
2024-03-13T03:58:44.427Z,100613.72
2024-03-13T04:01:21.583Z,100608.19
2024-03-13T04:07:42.637Z,100613.66
2024-03-13T04:10:52.614Z,100608.09
2024-03-13T04:13:53.331Z,100618.03
2024-03-13T04:16:38.869Z,100613.88
2024-03-13T04:22:57.418Z,100611.25
2024-03-13T04:25:51.290Z,100620.69
2024-03-13T04:29:13.702Z,100621.34
2024-03-13T04:32:41.890Z,100624.22
2024-03-13T04:35:40.673Z,100614.25
2024-03-13T04:38:47.764Z,100618.00
2024-03-13T04:41:44.828Z,100614.91
2024-03-13T04:44:41.294Z,100611.59
2024-03-13T04:47:16.937Z,100610.38
2024-03-13T04:50:27.101Z,100617.03
2024-03-13T04:53:09.248Z,100611.44
2024-03-13T04:56:22.411Z,100613.63
2024-03-13T04:59:10.446Z,100613.59
2024-03-13T05:02:06.644Z,100608.53
2024-03-13T05:05:02.066Z,100601.31
2024-03-13T05:07:39.023Z,100607.69
2024-03-13T05:10:18.871Z,100607.44
2024-03-13T05:13:09.106Z,100610.38
2024-03-13T05:16:15.219Z,100609.75
2024-03-13T05:22:26.551Z,100612.50
2024-03-13T05:28:27.920Z,100599.03
2024-03-13T05:31:07.341Z,100606.72
2024-03-13T05:33:45.156Z,100598.69
2024-03-13T05:36:24.123Z,100602.28
2024-03-13T05:38:59.196Z,100600.06
2024-03-13T05:41:44.017Z,100606.38
2024-03-13T05:44:19.498Z,100598.72
2024-03-13T05:47:34.723Z,100594.09
2024-03-13T05:50:21.831Z,100541.47
2024-03-13T05:52:51.087Z,100581.16
2024-03-13T05:55:22.376Z,100559.66
2024-03-13T05:57:51.668Z,100553.94
2024-03-13T06:00:21.252Z,100533.09
2024-03-13T06:02:50.373Z,100535.16
2024-03-13T06:05:19.613Z,100568.09
2024-03-13T06:07:49.120Z,100581.38
2024-03-13T06:10:18.111Z,100601.75
2024-03-13T06:12:47.844Z,100601.94
2024-03-13T06:15:16.688Z,100547.47
2024-03-13T06:17:47.092Z,100609.44
2024-03-13T06:20:19.794Z,100587.06
2024-03-13T06:22:49.520Z,100613.25
2024-03-13T06:25:20.483Z,100601.84
2024-03-13T06:27:52.329Z,100602.09
2024-03-13T06:30:20.582Z,100615.34
2024-03-13T06:32:49.255Z,100623.50
2024-03-13T06:35:17.795Z,100624.06
2024-03-13T06:37:46.435Z,100624.44
2024-03-13T06:40:16.548Z,100625.38
2024-03-13T06:42:46.253Z,100625.94
2024-03-13T06:45:21.297Z,100630.47
2024-03-13T06:47:59.288Z,100618.06
2024-03-13T06:50:28.791Z,100619.25
2024-03-13T06:52:59.091Z,100612.25
2024-03-13T06:55:27.863Z,100622.66
2024-03-13T06:57:56.543Z,100628.50
2024-03-13T07:00:29.536Z,100623.94
2024-03-13T07:02:58.320Z,100612.31
2024-03-13T07:05:27.284Z,100636.22
2024-03-13T07:07:56.391Z,100630.84
2024-03-13T07:10:25.420Z,100616.91
2024-03-13T07:12:54.237Z,100637.00
2024-03-13T07:15:22.714Z,100633.44
2024-03-13T07:17:51.325Z,100631.91
2024-03-13T07:20:19.854Z,100634.53
2024-03-13T07:22:48.845Z,100629.97
2024-03-13T07:25:19.352Z,100638.72
2024-03-13T07:27:48.230Z,100638.16
2024-03-13T07:30:17.181Z,100603.59
2024-03-13T07:32:45.839Z,100630.41
2024-03-13T07:35:15.419Z,100629.84
2024-03-13T07:37:44.259Z,100595.31
2024-03-13T07:40:15.869Z,100628.06
2024-03-13T07:42:44.408Z,100634.63
2024-03-13T07:45:17.954Z,100633.59
2024-03-13T07:47:46.618Z,100625.44
2024-03-13T07:50:15.331Z,100631.00
2024-03-13T07:52:43.974Z,100619.22
2024-03-13T07:55:12.952Z,100607.97
2024-03-13T07:57:45.674Z,100623.69
2024-03-13T08:00:18.352Z,100550.41
2024-03-13T08:02:47.569Z,100622.44
2024-03-13T08:05:18.115Z,100621.56
2024-03-13T09:09:38.176Z,100621.03
2024-03-13T09:15:26.360Z,100612.94
2024-03-13T09:18:32.576Z,100615.66
2024-03-13T09:24:51.728Z,100609.31
2024-03-13T09:28:01.743Z,100601.56
2024-03-13T09:34:40.913Z,100606.06
2024-03-13T09:37:46.675Z,100544.19
2024-03-13T09:40:20.919Z,100544.38
2024-03-13T09:42:52.973Z,100582.78
2024-03-13T09:45:26.524Z,100532.94
2024-03-13T09:47:59.609Z,100586.75
2024-03-13T09:50:40.280Z,100506.56
2024-03-13T09:53:14.185Z,100528.09
2024-03-13T09:55:45.972Z,100563.22
2024-03-13T09:58:17.040Z,100564.59
2024-03-13T10:00:50.120Z,100514.31
2024-03-13T10:03:28.007Z,100560.16
2024-03-13T10:05:57.836Z,100536.88
2024-03-13T10:08:32.547Z,100537.19
2024-03-13T10:11:02.618Z,100570.94
2024-03-13T10:13:33.369Z,100522.00
2024-03-13T10:16:05.122Z,100557.38
2024-03-13T10:18:42.724Z,100586.44
2024-03-13T10:21:28.437Z,100554.63
2024-03-13T10:23:58.064Z,100530.97
2024-03-13T10:26:30.497Z,100547.84
2024-03-13T10:28:59.591Z,100581.94
2024-03-13T10:31:30.721Z,100516.75
2024-03-13T10:34:00.893Z,100548.81
2024-03-13T10:36:29.905Z,100560.97
2024-03-13T10:38:59.720Z,100571.19
2024-03-13T10:42:22.478Z,100573.16
2024-03-13T10:44:52.161Z,100572.91
2024-03-13T10:47:22.696Z,100544.88
2024-03-13T10:49:53.435Z,100550.19
2024-03-13T10:52:22.904Z,100554.78
2024-03-13T10:54:51.957Z,100564.28
2024-03-13T10:57:25.199Z,100547.94
2024-03-13T10:59:55.280Z,100502.56
2024-03-13T11:02:24.471Z,100515.66
2024-03-13T11:04:53.413Z,100564.34
2024-03-13T11:07:22.782Z,100563.84
2024-03-13T11:09:51.423Z,100550.34
2024-03-13T11:12:21.727Z,100487.97
2024-03-13T11:14:52.529Z,100550.09
2024-03-13T11:17:21.770Z,100539.63
2024-03-13T11:19:51.331Z,100555.03
2024-03-13T11:22:20.026Z,100553.41
2024-03-13T11:24:48.805Z,100535.16
2024-03-13T11:27:20.301Z,100557.19
2024-03-13T11:29:50.964Z,100547.00
2024-03-13T11:32:20.390Z,100551.19
2024-03-13T11:34:50.863Z,100544.97
2024-03-13T11:37:22.436Z,100551.25
2024-03-13T11:39:53.407Z,100536.53
2024-03-13T11:42:22.637Z,100469.72
2024-03-13T11:44:52.930Z,100547.09
2024-03-13T11:48:53.262Z,100456.53
2024-03-13T11:51:16.725Z,100535.69
2024-03-13T11:53:46.579Z,100508.69
2024-03-13T11:56:21.888Z,100459.75
2024-03-13T11:58:51.027Z,100533.31
2024-03-13T12:01:19.946Z,100460.78
2024-03-13T12:03:49.724Z,100451.34
2024-03-13T12:06:43.211Z,100533.00
2024-03-13T12:09:14.532Z,100498.28
2024-03-13T12:11:43.453Z,100518.59
2024-03-13T12:26:32.788Z,100438.09
2024-03-13T12:29:02.701Z,100466.94
2024-03-13T12:31:35.235Z,100503.41
2024-03-13T12:34:05.082Z,100446.66
2024-03-13T12:36:45.412Z,100454.63
2024-03-13T12:39:18.770Z,100474.72
2024-03-13T12:41:51.232Z,100497.41
2024-03-13T12:44:30.022Z,100494.19
2024-03-13T12:47:01.449Z,100460.63
2024-03-13T12:49:46.726Z,100484.28
2024-03-13T12:52:24.844Z,100485.56
2024-03-13T12:55:06.786Z,100436.22
2024-03-13T12:57:38.960Z,100412.84
2024-03-13T13:00:16.984Z,100484.94
2024-03-13T13:02:48.804Z,100446.72
2024-03-13T13:05:24.876Z,100464.13
2024-03-13T13:07:56.007Z,100443.47
2024-03-13T13:10:28.837Z,100388.78
2024-03-13T13:12:58.540Z,100434.03
2024-03-13T13:15:28.821Z,100415.88
2024-03-13T13:17:58.681Z,100446.25
2024-03-13T13:20:27.798Z,100388.97
2024-03-13T13:22:59.226Z,100446.28
2024-03-13T13:25:30.877Z,100399.00
2024-03-13T13:28:13.622Z,100423.09
2024-03-13T13:30:48.972Z,100385.03
2024-03-13T13:33:20.412Z,100420.69
2024-03-13T13:35:50.090Z,100406.09
2024-03-13T13:38:23.751Z,100382.88
2024-03-13T13:40:58.843Z,100413.13
2024-03-13T13:43:30.046Z,100436.44
2024-03-13T13:46:00.388Z,100422.00
2024-03-13T13:48:30.071Z,100430.69
2024-03-13T13:51:00.604Z,100391.66
2024-03-13T13:53:30.902Z,100358.50
2024-03-13T13:55:59.604Z,100409.81
2024-03-13T13:58:31.054Z,100367.31
2024-03-13T14:01:01.454Z,100435.00
2024-03-13T14:03:30.625Z,100424.13
2024-03-13T14:06:01.580Z,100422.19
2024-03-13T14:08:31.061Z,100399.63
2024-03-13T14:11:02.038Z,100380.31
2024-03-13T14:13:31.561Z,100399.41
2024-03-13T14:16:02.895Z,100397.44
2024-03-13T14:18:40.705Z,100406.66
2024-03-13T14:21:11.382Z,100383.06
2024-03-13T14:23:42.333Z,100431.81
2024-03-13T14:26:13.337Z,100382.88
2024-03-13T14:28:44.830Z,100379.41
2024-03-13T14:31:14.015Z,100386.28
2024-03-13T14:33:42.913Z,100389.94
2024-03-13T14:36:14.273Z,100400.84
2024-03-13T14:38:43.972Z,100387.50
2024-03-13T14:41:15.149Z,100398.69
2024-03-13T14:43:44.740Z,100351.72
2024-03-13T14:46:14.005Z,100367.19
2024-03-13T14:48:43.021Z,100360.13
2024-03-13T14:51:12.605Z,100369.59
2024-03-13T14:53:43.911Z,100384.91
2024-03-13T14:56:13.173Z,100366.44
2024-03-13T14:58:45.190Z,100406.22
2024-03-13T15:01:14.402Z,100380.91
2024-03-13T15:03:50.737Z,100346.06
2024-03-13T15:06:20.815Z,100360.50
2024-03-13T15:08:49.760Z,100352.47
2024-03-13T15:11:18.929Z,100406.16
2024-03-13T15:13:53.083Z,100372.75
2024-03-13T15:16:22.210Z,100380.25
2024-03-13T15:18:51.595Z,100410.66
2024-03-13T15:21:20.718Z,100375.59
2024-03-13T15:23:49.650Z,100362.91
2024-03-13T15:26:19.119Z,100333.25
2024-03-13T15:28:48.330Z,100397.38
2024-03-13T15:31:18.951Z,100348.94
2024-03-13T15:33:48.483Z,100400.38
2024-03-13T15:36:19.051Z,100321.16
2024-03-13T15:38:49.388Z,100372.19
2024-03-13T15:41:18.701Z,100381.44
2024-03-13T15:43:47.824Z,100351.09
2024-03-13T15:46:17.530Z,100381.03
2024-03-13T15:48:46.806Z,100352.63
2024-03-13T15:51:16.031Z,100362.53
2024-03-13T15:53:45.241Z,100360.78
2024-03-13T15:56:14.562Z,100371.09
2024-03-13T15:58:43.789Z,100366.75
2024-03-13T16:01:12.764Z,100376.63
2024-03-13T16:03:46.083Z,100402.66
2024-03-13T16:06:15.645Z,100384.13
2024-03-13T16:08:46.990Z,100374.41
2024-03-13T16:11:16.978Z,100356.59
2024-03-13T16:13:46.286Z,100361.16
2024-03-13T16:16:15.433Z,100353.75
2024-03-13T16:18:44.308Z,100347.19
2024-03-13T16:21:15.407Z,100370.41
2024-03-13T16:23:45.087Z,100365.00
2024-03-13T16:26:16.578Z,100383.34
2024-03-13T16:28:47.123Z,100394.88
2024-03-13T16:31:16.276Z,100339.44
2024-03-13T16:33:45.649Z,100358.16
2024-03-13T16:36:14.703Z,100391.09
2024-03-13T16:38:43.609Z,100342.84
2024-03-13T16:41:13.038Z,100387.44
2024-03-13T16:43:42.709Z,100395.91
2024-03-13T16:46:11.804Z,100390.94
2024-03-13T16:48:40.892Z,100385.00
2024-03-13T16:51:09.760Z,100386.94
2024-03-13T16:53:38.934Z,100350.25
2024-03-13T16:56:08.268Z,100389.13
2024-03-13T16:58:37.350Z,100387.09
2024-03-13T17:01:06.419Z,100400.00
2024-03-13T17:03:35.281Z,100405.84
2024-03-13T17:06:04.472Z,100400.50
2024-03-13T17:08:33.562Z,100365.50
2024-03-13T17:11:02.542Z,100340.22
2024-03-13T17:13:34.705Z,100346.81
2024-03-13T17:16:03.894Z,100417.72
2024-03-13T17:18:35.552Z,100379.22
2024-03-13T17:21:05.171Z,100377.53
2024-03-13T17:23:44.602Z,100394.66
2024-03-13T17:26:14.487Z,100395.19
2024-03-13T17:28:47.107Z,100336.63
2024-03-13T17:31:25.921Z,100390.03
2024-03-13T17:33:55.728Z,100422.06
2024-03-13T17:36:31.952Z,100385.25
2024-03-13T17:39:02.494Z,100358.94
2024-03-13T17:41:32.577Z,100395.16
2024-03-13T17:44:11.315Z,100427.53
2024-03-13T17:46:57.371Z,100403.03
2024-03-13T17:49:28.236Z,100389.00
2024-03-13T17:51:58.738Z,100382.84
2024-03-13T17:54:37.307Z,100359.63
2024-03-13T17:57:09.887Z,100423.94
2024-03-13T17:59:43.157Z,100400.09
2024-03-13T18:02:13.931Z,100442.22
2024-03-13T18:05:32.927Z,100433.56
2024-03-13T18:08:28.850Z,100442.56
2024-03-13T18:11:30.157Z,100395.28
2024-03-13T18:14:17.227Z,100438.47
2024-03-13T18:17:13.972Z,100383.59
2024-03-13T18:20:04.360Z,100424.56
2024-03-13T18:23:25.034Z,100366.53
2024-03-13T18:25:57.904Z,100452.59
2024-03-13T18:28:44.949Z,100437.00
2024-03-13T18:31:56.487Z,100451.41
2024-03-13T18:34:41.405Z,100457.94
2024-03-13T18:37:14.215Z,100449.34
2024-03-13T18:39:54.259Z,100378.88
2024-03-13T18:43:02.496Z,100417.94
2024-03-13T18:46:04.312Z,100457.44
2024-03-13T18:52:23.252Z,100458.59
2024-03-13T18:55:28.993Z,100453.31
2024-03-13T18:58:42.168Z,100459.56
2024-03-13T19:12:07.407Z,100429.72
2024-03-13T19:21:22.542Z,100435.66
2024-03-13T19:24:31.577Z,100427.84
2024-03-13T19:27:26.538Z,100424.63
2024-03-13T19:33:27.009Z,100419.47
2024-03-13T19:39:28.315Z,100430.38
2024-03-13T19:42:04.017Z,100391.72
2024-03-13T19:44:36.364Z,100402.09
2024-03-13T19:47:05.769Z,100384.03
2024-03-13T19:49:35.576Z,100415.00
2024-03-13T19:52:05.214Z,100367.81
2024-03-13T19:57:34.296Z,100345.25
2024-03-13T20:00:03.648Z,100349.34
2024-03-13T20:02:41.811Z,100406.72
2024-03-13T20:05:12.448Z,100385.53
2024-03-13T20:07:41.963Z,100341.72
2024-03-13T20:10:13.170Z,100363.25
2024-03-13T20:12:44.026Z,100399.84
2024-03-13T20:15:15.605Z,100359.59
2024-03-13T20:17:45.331Z,100356.56
2024-03-13T20:20:15.045Z,100361.50
2024-03-13T20:22:48.424Z,100367.75
2024-03-13T20:25:18.808Z,100351.09
2024-03-13T20:27:49.547Z,100337.78
2024-03-13T20:30:19.436Z,100401.91
2024-03-13T20:32:48.865Z,100394.63
2024-03-13T20:35:18.012Z,100411.94
2024-03-13T20:37:50.175Z,100332.19
2024-03-13T20:40:27.852Z,100346.69
2024-03-13T20:42:57.231Z,100381.31
2024-03-13T20:45:26.583Z,100359.41
2024-03-13T20:47:56.224Z,100413.41
2024-03-13T20:50:28.588Z,100365.66
2024-03-13T20:52:57.408Z,100400.69
2024-03-13T20:55:27.047Z,100355.28
2024-03-13T20:57:58.928Z,100418.19
2024-03-13T21:00:31.833Z,100395.47
2024-03-13T21:03:02.646Z,100357.91
2024-03-13T21:05:33.434Z,100396.78
2024-03-13T21:08:11.799Z,100394.44
2024-03-13T21:10:48.006Z,100382.84
2024-03-13T21:13:23.283Z,100400.16
2024-03-13T21:15:57.029Z,100393.06
2024-03-13T21:18:39.666Z,100388.13
2024-03-13T21:21:11.228Z,100407.06
2024-03-13T21:23:40.764Z,100367.50
2024-03-13T21:26:10.094Z,100377.66
2024-03-13T21:28:39.069Z,100370.19
2024-03-13T21:31:08.514Z,100363.19
2024-03-13T21:33:39.154Z,100361.06
2024-03-13T21:36:10.419Z,100410.28
2024-03-13T21:38:43.668Z,100424.66
2024-03-13T21:41:17.520Z,100398.53
2024-03-13T21:43:58.177Z,100436.13
2024-03-13T21:47:17.414Z,100376.44
2024-03-13T21:50:13.001Z,100436.41
2024-03-13T21:52:51.216Z,100406.28
2024-03-13T21:55:51.137Z,100371.94
2024-03-13T21:58:31.275Z,100401.84
2024-03-13T22:01:06.922Z,100413.97
2024-03-13T22:03:39.524Z,100435.03
2024-03-13T22:06:11.124Z,100357.97
2024-03-13T22:08:40.250Z,100366.28
2024-03-13T22:11:18.039Z,100415.56
2024-03-13T22:13:53.670Z,100439.97
2024-03-13T22:16:31.012Z,100386.31
2024-03-13T22:19:15.087Z,100449.53
2024-03-13T22:22:02.111Z,100372.34
2024-03-13T22:24:51.256Z,100425.78
2024-03-13T22:27:52.481Z,100425.16
2024-03-13T22:30:35.628Z,100433.47
2024-03-13T22:33:08.441Z,100407.22
2024-03-13T22:35:42.200Z,100389.66
2024-03-13T22:38:15.416Z,100442.53
2024-03-13T22:40:45.621Z,100402.78
2024-03-13T22:43:23.980Z,100374.56
2024-03-13T22:46:05.776Z,100432.34
2024-03-13T22:48:36.557Z,100373.69
2024-03-13T22:51:14.197Z,100372.72
2024-03-13T22:53:47.451Z,100412.63
2024-03-13T22:56:19.622Z,100366.78
2024-03-13T22:58:51.583Z,100436.59
2024-03-13T23:01:25.754Z,100411.03
2024-03-13T23:03:59.875Z,100408.47
2024-03-13T23:06:32.477Z,100367.50
2024-03-13T23:09:01.455Z,100407.59
2024-03-13T23:11:30.387Z,100428.41
2024-03-13T23:14:05.694Z,100418.50
2024-03-13T23:16:34.386Z,100423.84
2024-03-13T23:19:03.403Z,100360.22
2024-03-13T23:21:32.243Z,100357.59
2024-03-13T23:24:01.302Z,100392.22
2024-03-13T23:26:30.185Z,100362.09
2024-03-13T23:28:59.705Z,100355.78
2024-03-13T23:31:28.537Z,100399.97
2024-03-13T23:33:57.359Z,100378.66
2024-03-13T23:36:26.976Z,100400.09
2024-03-13T23:38:58.759Z,100431.03
2024-03-13T23:41:30.764Z,100361.19
2024-03-13T23:43:59.942Z,100366.69
2024-03-13T23:46:28.871Z,100348.38
2024-03-13T23:49:00.329Z,100405.97
2024-03-13T23:51:29.273Z,100420.13
2024-03-13T23:53:58.335Z,100372.81
2024-03-13T23:56:29.858Z,100417.75
2024-03-13T23:58:58.630Z,100412.25
